Time;durP1;ratioP1;P1;durP2;ratioP2;P2;SDS_P1;SDS_P2;PMS_P1;PMS_P2;Temp;Humidity;BMP_temperature;BMP_pressure;BME280_temperature;BME280_humidity;BME280_pressure;Samples;Min_cycle;Max_cycle;Signal;HPM_P1;HPM_P2
2021/01/19 00:01:13;;;;;;;;;;;;;;;6.72;52.01;101694.94;5034100;28;20383;-82
2021/01/19 00:03:58;;;;;;;;;;;;;;;6.69;50.33;101684.66;5046861;28;20539;-82
2021/01/19 00:06:43;;;;;;;;;;;;;;;6.88;55.85;101696.63;5049787;28;19913;-83
2021/01/19 00:09:27;;;;;;;;;;;;;;;6.71;50.01;101685.19;5053239;28;19917;-83
2021/01/19 00:12:12;;;;;;;;;;;;;;;6.64;49.01;101685.47;5050414;28;19912;-82
2021/01/19 00:14:56;;;;;;;;;;;;;;;6.53;48.31;101678.41;5039913;28;19916;-83
2021/01/19 00:17:41;;;;;;;;;;;;;;;6.49;47.90;101677.31;5047460;28;19913;-82
2021/01/19 00:20:26;;;;;;;;;;;;;;;6.48;49.18;101672.97;5044677;28;19917;-83
2021/01/19 00:23:13;;;;;;;;;;;;;;;6.40;49.54;101665.34;5049083;28;19916;-82
2021/01/19 00:25:58;;;;;;;;;;;;;;;6.51;51.53;101669.72;5033366;28;19913;-80
2021/01/19 00:28:42;;;;;;;;;;;;;;;6.53;49.93;101656.78;5034988;28;19916;-82
2021/01/19 00:31:27;;;;;;;;;;;;;;;6.33;47.82;101662.91;5036791;28;19916;-82
2021/01/19 00:34:12;;;;;;;;;;;;;;;6.33;49.76;101656.69;5032743;28;19913;-83
2021/01/19 00:36:57;;;;;;;;;;;;;;;6.48;50.81;101654.06;5047170;28;19913;-80
2021/01/19 00:39:41;;;;;;;;;;;;;;;6.36;48.62;101656.97;5035660;28;19913;-82
2021/01/19 00:42:26;;;;;;;;;;;;;;;6.17;48.88;101655.81;5034744;28;19916;-81
2021/01/19 00:45:11;;;;;;;;;;;;;;;6.18;48.89;101659.34;5033244;28;19913;-83
2021/01/19 00:47:56;;;;;;;;;;;;;;;6.12;48.11;101652.28;5045946;28;20379;-82
2021/01/19 00:50:41;;;;;;;;;;;;;;;6.10;49.02;101663.31;5039776;28;19913;-83
2021/01/19 00:53:25;;;;;;;;;;;;;;;5.90;48.77;101653.22;5041883;28;19913;-82
2021/01/19 00:56:10;;;;;;;;;;;;;;;5.75;48.89;101666.59;5047708;28;19913;-80
2021/01/19 00:58:56;;;;;;;;;;;;;;;5.75;47.91;101676.56;5035608;28;20361;-81
2021/01/19 01:01:49;;;;;;;;;;;;;;;5.96;46.63;101676.47;5035935;28;19912;-81
2021/01/19 01:04:33;;;;;;;;;;;;;;;5.91;45.67;101671.06;5041082;28;19912;-82
2021/01/19 01:07:18;;;;;;;;;;;;;;;5.46;47.60;101670.69;5046519;28;19913;-82
2021/01/19 01:10:04;;;;;;;;;;;;;;;5.40;47.96;101669.84;5054953;28;19917;-82
2021/01/19 01:12:49;;;;;;;;;;;;;;;5.38;48.15;101658.50;5053635;28;19912;-81
2021/01/19 01:15:34;;;;;;;;;;;;;;;5.33;50.53;101661.16;5042516;28;19913;-84
2021/01/19 01:18:18;;;;;;;;;;;;;;;5.42;48.97;101665.00;5042568;28;20426;-81
2021/01/19 01:21:03;;;;;;;;;;;;;;;5.45;47.90;101667.19;5033673;28;19913;-81
2021/01/19 01:23:48;;;;;;;;;;;;;;;5.41;48.49;101665.25;5031054;28;20383;-82
2021/01/19 01:26:33;;;;;;;;;;;;;;;5.47;48.08;101667.75;5042514;28;19912;-79
2021/01/19 01:29:17;;;;;;;;;;;;;;;5.62;47.95;101671.63;5050504;28;19917;-80
2021/01/19 01:32:01;;;;;;;;;;;;;;;5.51;48.12;101678.84;5046900;28;19920;-81
2021/01/19 01:34:46;;;;;;;;;;;;;;;5.36;50.91;101667.91;5048499;28;20388;-82
2021/01/19 01:37:30;;;;;;;;;;;;;;;5.49;51.83;101671.00;5047205;28;20286;-80
2021/01/19 01:40:16;;;;;;;;;;;;;;;5.42;50.89;101667.72;5045924;28;19913;-80
2021/01/19 01:43:09;;;;;;;;;;;;;;;5.44;50.57;101676.34;5046291;28;19913;-80
2021/01/19 01:45:55;;;;;;;;;;;;;;;5.25;50.18;101658.94;5044205;28;19913;-82
2021/01/19 01:48:39;;;;;;;;;;;;;;;5.55;53.71;101663.75;5042644;28;19917;-83
2021/01/19 01:51:25;;;;;;;;;;;;;;;5.44;52.43;101645.84;5030717;28;20364;-83
2021/01/19 01:54:09;;;;;;;;;;;;;;;5.78;56.00;101652.59;5042951;28;19916;-80
2021/01/19 01:56:54;;;;;;;;;;;;;;;5.45;53.95;101645.59;5032994;28;19921;-80
2021/01/19 01:59:39;;;;;;;;;;;;;;;5.31;51.39;101649.00;5045159;28;19913;-79
2021/01/19 02:02:23;;;;;;;;;;;;;;;5.20;49.16;101639.19;5027045;28;19916;-79
2021/01/19 02:05:08;;;;;;;;;;;;;;;5.13;49.85;101642.91;5042370;28;20364;-79
2021/01/19 02:08:03;;;;;;;;;;;;;;;5.40;47.75;101652.84;5064512;22;19925;-78
2021/01/19 02:10:57;;;;;;;;;;;;;;;5.43;47.34;101642.38;5042426;28;19917;-78
2021/01/19 02:13:48;;;;;;;;;;;;;;;5.10;49.89;101642.63;5041546;28;19917;-78
2021/01/19 02:16:36;;;;;;;;;;;;;;;5.03;51.15;101637.41;5042393;28;20298;-78
2021/01/19 02:19:47;;;;;;;;;;;;;;;5.03;50.94;101633.91;5008526;28;19939;-78
2021/01/19 02:22:42;;;;;;;;;;;;;;;5.04;51.60;101649.84;5019025;28;19913;-78
2021/01/19 02:25:39;;;;;;;;;;;;;;;5.05;51.17;101639.88;5011010;28;19913;-78
2021/01/19 02:28:34;;;;;;;;;;;;;;;5.15;52.34;101635.38;5013285;28;19921;-78
2021/01/19 02:31:37;;;;;;;;;;;;;;;5.06;52.41;101631.53;5033386;28;19913;-78
2021/01/19 02:34:32;;;;;;;;;;;;;;;5.16;54.12;101647.81;5025364;28;19917;-78
2021/01/19 02:37:20;;;;;;;;;;;;;;;5.15;53.87;101646.16;5023756;28;19916;-78
2021/01/19 02:40:06;;;;;;;;;;;;;;;5.27;53.91;101647.88;5018618;28;20295;-79
2021/01/19 02:43:09;;;;;;;;;;;;;;;5.34;54.27;101641.19;5015259;28;19913;-78
2021/01/19 02:45:55;;;;;;;;;;;;;;;5.25;50.86;101633.84;5017178;28;19912;-79
2021/01/19 02:48:41;;;;;;;;;;;;;;;5.53;48.70;101634.34;5021132;28;19917;-78
2021/01/19 02:51:26;;;;;;;;;;;;;;;5.45;47.66;101623.22;5029124;28;19913;-78
2021/01/19 02:54:10;;;;;;;;;;;;;;;5.35;46.99;101623.94;5022238;28;19928;-79
2021/01/19 02:57:09;;;;;;;;;;;;;;;5.36;46.89;101636.38;5023181;28;20322;-79
2021/01/19 03:00:06;;;;;;;;;;;;;;;5.29;47.10;101633.06;5037778;28;19917;-79
2021/01/19 03:02:51;;;;;;;;;;;;;;;4.99;47.68;101636.31;5011259;28;19913;-79
2021/01/19 03:05:37;;;;;;;;;;;;;;;4.97;47.59;101622.28;5023764;28;19913;-78
2021/01/19 03:08:23;;;;;;;;;;;;;;;5.18;47.00;101632.16;5031973;28;19921;-78
2021/01/19 03:11:12;;;;;;;;;;;;;;;4.92;49.43;101633.03;5032590;28;19912;-78
2021/01/19 03:13:57;;;;;;;;;;;;;;;5.12;48.38;101630.53;5037356;28;19913;-79
2021/01/19 03:16:45;;;;;;;;;;;;;;;5.13;49.14;101636.69;5012811;28;19929;-79
2021/01/19 03:19:32;;;;;;;;;;;;;;;5.13;49.33;101642.91;5012164;28;19914;-78
2021/01/19 03:22:17;;;;;;;;;;;;;;;5.26;49.15;101630.91;5011758;28;20331;-78
2021/01/19 03:25:01;;;;;;;;;;;;;;;5.36;49.80;101630.97;5031821;28;19913;-78
2021/01/19 03:27:46;;;;;;;;;;;;;;;5.34;48.25;101624.19;5035158;28;19921;-79
2021/01/19 03:30:31;;;;;;;;;;;;;;;5.35;47.69;101623.94;5033946;28;19913;-78
2021/01/19 03:33:16;;;;;;;;;;;;;;;5.36;48.04;101616.69;5016845;28;19913;-79
2021/01/19 03:36:00;;;;;;;;;;;;;;;5.16;48.21;101625.41;5024582;28;19913;-78
2021/01/19 03:38:44;;;;;;;;;;;;;;;5.08;48.82;101621.28;5015302;28;19913;-78
2021/01/19 03:41:29;;;;;;;;;;;;;;;5.23;48.46;101619.81;5030963;28;19913;-78
2021/01/19 03:44:13;;;;;;;;;;;;;;;5.35;48.68;101620.44;5025648;28;19913;-78
2021/01/19 03:46:57;;;;;;;;;;;;;;;5.42;49.49;101619.16;5016853;28;19913;-79
2021/01/19 03:49:42;;;;;;;;;;;;;;;5.45;48.30;101617.81;5019350;28;19921;-80
2021/01/19 03:52:27;;;;;;;;;;;;;;;5.38;48.11;101619.94;5024643;28;19913;-80
2021/01/19 03:55:11;;;;;;;;;;;;;;;5.29;47.36;101607.97;5038421;28;19913;-85
2021/01/19 03:57:58;;;;;;;;;;;;;;;5.05;47.68;101613.72;5014468;28;20384;-84
2021/01/19 04:00:43;;;;;;;;;;;;;;;5.11;47.20;101615.41;5027563;28;19913;-84
2021/01/19 04:03:27;;;;;;;;;;;;;;;5.13;48.01;101610.56;5038343;28;19913;-85
2021/01/19 04:06:12;;;;;;;;;;;;;;;5.39;50.68;101621.53;5043402;28;19913;-84
2021/01/19 04:08:56;;;;;;;;;;;;;;;5.32;47.46;101616.38;5019985;28;20295;-84
2021/01/19 04:11:41;;;;;;;;;;;;;;;5.38;47.83;101618.06;5050586;28;19920;-84
2021/01/19 04:14:26;;;;;;;;;;;;;;;5.49;49.20;101608.94;5016795;28;19914;-84
2021/01/19 04:17:10;;;;;;;;;;;;;;;5.37;48.90;101611.03;5009646;28;19913;-84
2021/01/19 04:19:55;;;;;;;;;;;;;;;5.52;48.90;101613.84;5007562;28;19913;-84
2021/01/19 04:22:39;;;;;;;;;;;;;;;5.51;49.10;101627.56;5024197;28;19920;-82
2021/01/19 04:25:23;;;;;;;;;;;;;;;5.57;49.12;101627.38;5014397;28;20364;-84
2021/01/19 04:28:09;;;;;;;;;;;;;;;5.56;48.61;101622.22;5038246;28;19913;-83
2021/01/19 04:30:54;;;;;;;;;;;;;;;5.47;48.47;101615.69;5006256;28;19917;-84
2021/01/19 04:33:38;;;;;;;;;;;;;;;5.51;49.67;101619.50;5029614;28;19917;-84
2021/01/19 04:36:23;;;;;;;;;;;;;;;5.66;49.53;101613.38;5015724;28;19918;-84
2021/01/19 04:39:07;;;;;;;;;;;;;;;5.61;50.13;101622.25;5019286;28;19914;-84
2021/01/19 04:41:52;;;;;;;;;;;;;;;5.59;48.85;101609.00;5037248;28;19913;-84
2021/01/19 04:44:36;;;;;;;;;;;;;;;5.39;47.29;101603.47;5015597;28;19914;-83
2021/01/19 04:47:21;;;;;;;;;;;;;;;5.20;49.88;101614.94;5018195;28;19914;-84
2021/01/19 04:50:10;;;;;;;;;;;;;;;5.25;46.76;101609.56;5011073;28;19917;-84
2021/01/19 04:52:57;;;;;;;;;;;;;;;5.12;45.77;101619.75;5022826;28;19913;-84
2021/01/19 04:55:45;;;;;;;;;;;;;;;5.20;46.04;101614.94;5018154;28;19913;-84
2021/01/19 04:58:35;;;;;;;;;;;;;;;5.13;46.52;101618.63;5019342;28;19913;-85
2021/01/19 05:01:40;;;;;;;;;;;;;;;5.14;46.43;101622.16;5006615;28;19913;-84
2021/01/19 05:04:28;;;;;;;;;;;;;;;5.08;45.35;101618.59;5002869;28;19913;-84
2021/01/19 05:07:32;;;;;;;;;;;;;;;4.34;48.03;101611.38;5017573;28;19925;-84
2021/01/19 05:10:21;;;;;;;;;;;;;;;4.74;47.82;101617.19;5017476;28;19917;-84
2021/01/19 05:13:09;;;;;;;;;;;;;;;4.39;49.10;101619.50;5023381;28;19913;-84
2021/01/19 05:16:01;;;;;;;;;;;;;;;4.43;48.10;101616.06;5038843;28;19939;-84
2021/01/19 05:18:46;;;;;;;;;;;;;;;4.27;48.93;101617.75;5035087;28;19913;-84
2021/01/19 05:21:36;;;;;;;;;;;;;;;4.16;51.41;101621.41;5035103;28;19913;-84
2021/01/19 05:24:22;;;;;;;;;;;;;;;4.23;50.66;101624.72;5018599;28;19913;-83
2021/01/19 05:27:09;;;;;;;;;;;;;;;4.13;49.11;101627.28;5003410;28;19913;-84
2021/01/19 05:30:01;;;;;;;;;;;;;;;4.16;51.08;101631.38;5026456;28;19917;-84
2021/01/19 05:32:46;;;;;;;;;;;;;;;4.15;50.03;101630.53;5025327;28;19913;-83
2021/01/19 05:35:30;;;;;;;;;;;;;;;4.07;48.21;101624.75;5036974;28;19917;-84
2021/01/19 05:38:16;;;;;;;;;;;;;;;3.99;48.14;101634.09;5018408;28;19917;-84
2021/01/19 05:41:01;;;;;;;;;;;;;;;4.08;48.88;101635.28;5025118;28;19913;-84
2021/01/19 05:43:45;;;;;;;;;;;;;;;4.09;48.43;101641.47;5022800;28;20251;-83
2021/01/19 05:46:30;;;;;;;;;;;;;;;4.32;49.41;101636.66;5025762;28;19913;-84
2021/01/19 05:49:16;;;;;;;;;;;;;;;4.40;47.18;101643.50;5026263;28;20339;-84
2021/01/19 05:52:08;;;;;;;;;;;;;;;4.34;52.34;101643.69;5032124;28;20379;-84
2021/01/19 05:54:53;;;;;;;;;;;;;;;4.10;50.96;101651.19;5027621;28;20383;-84
2021/01/19 05:57:37;;;;;;;;;;;;;;;4.25;51.77;101652.22;5018126;28;19913;-85
2021/01/19 06:00:25;;;;;;;;;;;;;;;4.16;49.96;101642.13;5020327;28;19917;-85
2021/01/19 06:03:14;;;;;;;;;;;;;;;4.30;52.23;101646.88;5031258;28;20331;-82
2021/01/19 06:05:58;;;;;;;;;;;;;;;4.38;53.82;101645.63;5031325;28;19913;-85
2021/01/19 06:08:44;;;;;;;;;;;;;;;4.39;52.10;101644.56;5025554;28;19921;-84
2021/01/19 06:11:28;;;;;;;;;;;;;;;3.36;49.97;101642.56;5026395;28;19913;-83
2021/01/19 06:14:19;;;;;;;;;;;;;;;2.84;50.99;101644.63;5022975;28;19917;-83
2021/01/19 06:17:05;;;;;;;;;;;;;;;2.46;50.65;101648.75;5025440;28;19913;-84
2021/01/19 06:19:52;;;;;;;;;;;;;;;2.54;50.25;101656.41;5025581;28;19913;-83
2021/01/19 06:22:37;;;;;;;;;;;;;;;2.65;50.16;101661.97;5028136;28;19913;-85
2021/01/19 06:25:21;;;;;;;;;;;;;;;2.19;50.17;101653.00;5010783;28;19913;-85
2021/01/19 06:28:09;;;;;;;;;;;;;;;2.21;50.80;101661.66;5036895;28;19913;-84
2021/01/19 06:30:53;;;;;;;;;;;;;;;2.42;50.92;101660.19;5016877;28;19917;-83
2021/01/19 06:33:41;;;;;;;;;;;;;;;1.96;50.23;101669.16;5031019;28;19913;-84
2021/01/19 06:36:35;;;;;;;;;;;;;;;1.86;50.90;101666.25;5033535;28;19913;-84
2021/01/19 06:39:32;;;;;;;;;;;;;;;1.94;51.32;101672.06;5010303;28;19913;-85
2021/01/19 06:42:17;;;;;;;;;;;;;;;2.00;51.15;101672.97;5019930;28;19913;-84
2021/01/19 06:45:05;;;;;;;;;;;;;;;1.70;50.08;101665.88;5005590;28;19914;-84
2021/01/19 06:47:51;;;;;;;;;;;;;;;1.52;50.20;101663.34;5016533;28;19913;-84
2021/01/19 06:50:37;;;;;;;;;;;;;;;1.53;50.55;101674.84;5015505;28;20368;-84
2021/01/19 06:53:25;;;;;;;;;;;;;;;1.38;50.35;101675.28;5004910;28;19913;-84
2021/01/19 06:56:11;;;;;;;;;;;;;;;1.47;50.92;101681.16;5017292;28;19913;-84
2021/01/19 06:58:57;;;;;;;;;;;;;;;1.63;50.93;101678.56;5017984;28;19917;-84
2021/01/19 07:01:43;;;;;;;;;;;;;;;1.52;51.05;101674.06;5018771;28;19913;-83
2021/01/19 07:04:32;;;;;;;;;;;;;;;1.76;51.40;101676.72;5015690;28;19913;-83
2021/01/19 07:07:35;;;;;;;;;;;;;;;1.51;51.22;101680.44;5015607;28;19913;-83
2021/01/19 07:10:19;;;;;;;;;;;;;;;1.42;51.31;101681.84;5004818;28;19918;-83
2021/01/19 07:13:05;;;;;;;;;;;;;;;1.64;51.76;101688.25;5002912;28;20299;-83
2021/01/19 07:15:56;;;;;;;;;;;;;;;1.37;51.81;101684.41;5006730;28;19914;-83
2021/01/19 07:18:59;;;;;;;;;;;;;;;1.25;52.28;101688.91;5020706;28;20372;-83
2021/01/19 07:21:47;;;;;;;;;;;;;;;1.14;53.11;101697.72;5005662;28;19913;-83
2021/01/19 07:24:37;;;;;;;;;;;;;;;1.11;52.97;101695.50;5033578;28;19913;-81
2021/01/19 07:27:24;;;;;;;;;;;;;;;1.06;53.08;101695.38;5040597;28;19913;-82
2021/01/19 07:30:09;;;;;;;;;;;;;;;0.95;53.13;101709.53;5025304;28;19917;-83
2021/01/19 07:32:54;;;;;;;;;;;;;;;1.09;54.35;101714.47;5023607;28;19913;-82
2021/01/19 07:35:39;;;;;;;;;;;;;;;0.92;53.94;101715.31;5021045;28;19913;-82
2021/01/19 07:38:24;;;;;;;;;;;;;;;0.91;54.11;101713.72;5033277;28;19913;-83
2021/01/19 07:41:09;;;;;;;;;;;;;;;1.01;53.79;101700.59;5022306;28;20372;-82
2021/01/19 07:43:53;;;;;;;;;;;;;;;1.52;52.43;101716.09;5020539;28;19917;-83
2021/01/19 07:46:38;;;;;;;;;;;;;;;1.90;52.61;101715.66;5004688;28;19913;-79
2021/01/19 07:49:29;;;;;;;;;;;;;;;2.15;54.54;101718.91;5036880;28;19917;-81
2021/01/19 07:52:15;;;;;;;;;;;;;;;2.44;53.67;101711.75;5020076;28;19914;-80
2021/01/19 07:55:00;;;;;;;;;;;;;;;2.37;51.62;101713.78;5022174;28;19914;-80
2021/01/19 07:57:46;;;;;;;;;;;;;;;2.30;52.53;101711.19;5038015;28;19913;-80
2021/01/19 08:00:31;;;;;;;;;;;;;;;2.50;52.33;101719.69;5035027;28;19913;-79
2021/01/19 08:03:15;;;;;;;;;;;;;;;3.15;58.06;101718.53;5019631;28;19914;-80
2021/01/19 08:06:09;;;;;;;;;;;;;;;2.62;51.08;101710.78;5033859;28;20304;-80
2021/01/19 08:08:53;;;;;;;;;;;;;;;2.46;53.38;101718.53;5065075;23;19920;-81
2021/01/19 08:11:39;;;;;;;;;;;;;;;2.89;54.54;101714.56;5057156;28;19916;-79
2021/01/19 08:14:32;;;;;;;;;;;;;;;2.48;52.38;101715.63;5065523;28;19920;-79
2021/01/19 08:17:17;;;;;;;;;;;;;;;1.86;51.68;101715.31;5075191;28;19912;-78
2021/01/19 08:20:04;;;;;;;;;;;;;;;1.58;52.02;101717.84;5054884;28;19913;-79
2021/01/19 08:22:49;;;;;;;;;;;;;;;1.70;52.11;101713.31;5041151;28;20387;-79
2021/01/19 08:25:33;;;;;;;;;;;;;;;1.57;53.00;101714.38;5040759;28;19916;-79
2021/01/19 08:28:18;;;;;;;;;;;;;;;1.49;53.50;101720.06;5043798;28;19913;-79
2021/01/19 08:31:12;;;;;;;;;;;;;;;1.55;53.97;101724.50;5045559;28;19916;-81
2021/01/19 08:34:01;;;;;;;;;;;;;;;1.56;54.46;101728.81;5032342;28;19920;-77
2021/01/19 08:36:47;;;;;;;;;;;;;;;1.67;54.30;101722.66;5028673;28;19912;-78
2021/01/19 08:39:32;;;;;;;;;;;;;;;1.56;55.28;101723.47;5028818;28;19912;-77
2021/01/19 08:42:18;;;;;;;;;;;;;;;1.66;55.92;101731.75;5029155;28;19912;-79
2021/01/19 08:45:03;;;;;;;;;;;;;;;2.31;55.95;101731.63;5040232;28;19913;-79
2021/01/19 08:47:50;;;;;;;;;;;;;;;2.08;56.19;101732.44;5031109;28;19917;-77
2021/01/19 08:50:39;;;;;;;;;;;;;;;2.00;56.37;101734.66;5039476;28;20272;-77
2021/01/19 08:53:27;;;;;;;;;;;;;;;1.99;56.77;101728.50;5026078;28;20298;-77
2021/01/19 08:56:19;;;;;;;;;;;;;;;2.09;56.46;101730.59;5043586;28;19913;-78
2021/01/19 08:59:03;;;;;;;;;;;;;;;2.34;56.69;101733.00;5041933;28;19913;-78
2021/01/19 09:01:51;;;;;;;;;;;;;;;3.05;58.75;101731.78;5039369;28;20095;-80
2021/01/19 09:04:36;;;;;;;;;;;;;;;3.07;56.29;101725.09;5043273;28;20291;-80
2021/01/19 09:07:28;;;;;;;;;;;;;;;2.50;56.43;101718.88;5028042;28;19913;-77
2021/01/19 09:10:18;;;;;;;;;;;;;;;2.93;55.46;101729.97;5039354;28;19917;-78
2021/01/19 09:13:03;;;;;;;;;;;;;;;2.05;58.39;101719.50;5038816;28;19912;-78
2021/01/19 09:15:47;;;;;;;;;;;;;;;1.80;58.83;101710.88;5027669;28;19913;-78
2021/01/19 09:18:32;;;;;;;;;;;;;;;1.73;59.78;101715.53;5025175;28;20557;-78
2021/01/19 09:21:18;;;;;;;;;;;;;;;1.61;60.93;101715.53;5038764;28;19912;-79
2021/01/19 09:24:02;;;;;;;;;;;;;;;1.31;62.35;101711.28;5041149;28;19912;-78
2021/01/19 09:27:00;;;;;;;;;;;;;;;1.06;62.71;101711.44;5025614;28;19913;-78
2021/01/19 09:29:45;;;;;;;;;;;;;;;1.19;63.21;101711.25;5039187;28;19920;-77
2021/01/19 09:32:29;;;;;;;;;;;;;;;0.78;64.89;101710.16;5053496;28;19913;-79
2021/01/19 09:35:15;;;;;;;;;;;;;;;1.23;63.07;101717.78;5053509;28;19913;-78
2021/01/19 09:38:00;;;;;;;;;;;;;;;1.23;63.15;101710.56;5044139;28;19912;-78
2021/01/19 09:40:45;;;;;;;;;;;;;;;1.28;62.51;101717.91;5027845;28;19913;-78
2021/01/19 09:43:29;;;;;;;;;;;;;;;1.09;62.37;101721.69;5038516;28;19912;-77
2021/01/19 09:46:14;;;;;;;;;;;;;;;1.37;62.55;101713.88;5024230;28;19912;-80
2021/01/19 09:49:01;;;;;;;;;;;;;;;1.37;61.78;101724.59;5024005;28;19920;-78
2021/01/19 09:51:45;;;;;;;;;;;;;;;1.21;62.71;101714.53;5026481;28;19917;-78
2021/01/19 09:54:31;;;;;;;;;;;;;;;1.37;62.23;101718.41;5038537;28;19920;-78
2021/01/19 09:57:24;;;;;;;;;;;;;;;1.24;62.54;101709.50;5028742;28;19913;-78
2021/01/19 10:00:10;;;;;;;;;;;;;;;1.51;62.63;101699.22;5047188;28;19912;-78
2021/01/19 10:03:16;;;;;;;;;;;;;;;1.37;63.12;101697.78;5018796;28;19913;-78
2021/01/19 10:06:05;;;;;;;;;;;;;;;1.45;62.88;101699.31;5033458;28;19917;-79
2021/01/19 10:08:52;;;;;;;;;;;;;;;1.55;63.23;101703.06;5019186;28;19913;-79
2021/01/19 10:11:37;;;;;;;;;;;;;;;1.73;62.62;101695.97;5023625;28;20372;-79
2021/01/19 10:14:28;;;;;;;;;;;;;;;1.78;62.93;101688.84;5017979;28;19917;-78
2021/01/19 10:17:16;;;;;;;;;;;;;;;1.73;62.34;101690.63;5018897;28;19913;-79
2021/01/19 10:20:05;;;;;;;;;;;;;;;2.01;61.72;101682.66;5018164;28;19913;-79
2021/01/19 10:22:56;;;;;;;;;;;;;;;2.03;61.70;101685.94;5007048;28;19913;-77
2021/01/19 10:25:40;;;;;;;;;;;;;;;2.03;61.54;101680.59;5017635;28;19913;-79
2021/01/19 10:28:25;;;;;;;;;;;;;;;2.21;61.48;101683.09;5008301;28;20375;-79
2021/01/19 10:31:14;;;;;;;;;;;;;;;2.15;61.16;101676.00;5022980;28;19913;-79
2021/01/19 10:34:03;;;;;;;;;;;;;;;1.90;62.49;101678.94;5021016;28;19917;-80
2021/01/19 10:36:52;;;;;;;;;;;;;;;2.25;60.57;101664.66;5021606;28;19913;-79
2021/01/19 10:40:06;;;;;;;;;;;;;;;2.76;60.24;101664.63;5018982;28;19913;-80
2021/01/19 10:42:50;;;;;;;;;;;;;;;3.08;58.88;101656.88;4999104;28;19913;-79
2021/01/19 10:45:38;;;;;;;;;;;;;;;3.21;58.94;101661.94;5021361;28;19913;-81
2021/01/19 10:48:23;;;;;;;;;;;;;;;3.04;60.34;101649.56;5022194;28;19917;-79
2021/01/19 10:51:07;;;;;;;;;;;;;;;3.32;59.68;101653.00;5021699;28;20331;-80
2021/01/19 10:54:00;;;;;;;;;;;;;;;3.18;59.76;101651.69;5004689;28;19921;-79
2021/01/19 10:56:58;;;;;;;;;;;;;;;3.40;59.56;101655.25;5024211;28;19909;-80
2021/01/19 10:59:42;;;;;;;;;;;;;;;3.63;59.28;101653.47;5018679;28;19913;-79
2021/01/19 11:02:27;;;;;;;;;;;;;;;3.32;60.27;101649.50;5017368;28;20304;-78
2021/01/19 11:05:12;;;;;;;;;;;;;;;3.72;59.61;101652.00;5010563;28;20311;-79
2021/01/19 11:07:56;;;;;;;;;;;;;;;4.19;58.13;101649.69;5009181;28;19925;-80
2021/01/19 11:10:41;;;;;;;;;;;;;;;3.54;59.80;101646.88;5009140;28;19913;-80
2021/01/19 11:13:26;;;;;;;;;;;;;;;3.50;60.16;101641.19;5025765;28;19916;-80
2021/01/19 11:16:10;;;;;;;;;;;;;;;4.04;58.81;101638.72;5037530;28;19913;-79
2021/01/19 11:18:57;;;;;;;;;;;;;;;3.40;59.72;101633.75;5051954;28;19912;-80
2021/01/19 11:21:43;;;;;;;;;;;;;;;3.33;60.93;101633.13;5037077;28;19917;-78
2021/01/19 11:24:28;;;;;;;;;;;;;;;3.88;58.94;101635.00;5029668;28;19912;-78
2021/01/19 11:27:13;;;;;;;;;;;;;;;4.45;57.31;101630.09;5023422;28;20456;-79
2021/01/19 11:29:57;;;;;;;;;;;;;;;4.37;56.84;101624.34;5023126;28;19913;-79
2021/01/19 11:32:42;;;;;;;;;;;;;;;3.98;57.72;101624.38;5043807;28;20363;-78
2021/01/19 11:35:26;;;;;;;;;;;;;;;3.78;58.04;101607.97;5053155;28;19913;-80
2021/01/19 11:38:11;;;;;;;;;;;;;;;3.59;59.23;101609.31;5027742;28;19917;-79
2021/01/19 11:40:55;;;;;;;;;;;;;;;3.76;58.75;101605.53;5022648;28;19912;-80
2021/01/19 11:43:39;;;;;;;;;;;;;;;4.03;58.33;101594.84;5029908;28;19912;-79
2021/01/19 11:46:27;;;;;;;;;;;;;;;4.13;57.86;101597.66;5029744;28;19913;-81
2021/01/19 11:49:12;;;;;;;;;;;;;;;3.95;58.03;101594.47;5023358;28;20410;-79
2021/01/19 11:51:56;;;;;;;;;;;;;;;4.26;57.91;101594.63;5029527;28;19908;-80
2021/01/19 11:54:40;;;;;;;;;;;;;;;4.68;56.79;101583.19;5052063;28;19916;-80
2021/01/19 11:57:26;;;;;;;;;;;;;;;4.03;58.23;101580.59;5057045;28;20535;-80
2021/01/19 12:00:10;;;;;;;;;;;;;;;4.10;57.80;101579.34;5028177;28;19913;-80
2021/01/19 12:02:54;;;;;;;;;;;;;;;3.98;58.75;101586.72;5011193;28;19913;-80
2021/01/19 12:05:40;;;;;;;;;;;;;;;3.48;60.14;101586.03;5022893;28;19913;-81
2021/01/19 12:08:25;;;;;;;;;;;;;;;3.19;60.85;101588.00;5028115;28;20279;-82
2021/01/19 12:11:10;;;;;;;;;;;;;;;2.64;63.38;101572.59;5036505;28;19917;-81
2021/01/19 12:13:54;;;;;;;;;;;;;;;2.56;63.40;101567.59;5032313;28;19918;-83
2021/01/19 12:16:40;;;;;;;;;;;;;;;2.37;64.45;101555.44;5039104;28;20383;-81
2021/01/19 12:19:25;;;;;;;;;;;;;;;2.30;65.65;101560.13;5016735;28;19913;-81
2021/01/19 12:22:09;;;;;;;;;;;;;;;2.87;63.83;101560.88;5023236;28;19913;-81
2021/01/19 12:24:54;;;;;;;;;;;;;;;3.57;61.86;101553.09;5029867;28;19913;-80
2021/01/19 12:27:40;;;;;;;;;;;;;;;4.25;59.46;101549.91;5040608;28;20367;-80
2021/01/19 12:30:24;;;;;;;;;;;;;;;4.08;59.85;101533.03;5021467;28;19913;-78
2021/01/19 12:33:09;;;;;;;;;;;;;;;4.07;60.08;101534.09;5045824;28;20372;-79
2021/01/19 12:35:54;;;;;;;;;;;;;;;3.72;61.48;101530.97;5046951;28;20391;-78
2021/01/19 12:38:38;;;;;;;;;;;;;;;3.81;61.41;101532.97;5025777;28;19921;-79
2021/01/19 12:41:23;;;;;;;;;;;;;;;3.99;60.61;101534.53;5032183;28;19916;-79
2021/01/19 12:44:07;;;;;;;;;;;;;;;4.02;60.38;101531.34;5045048;28;20379;-78
2021/01/19 12:46:56;;;;;;;;;;;;;;;4.42;59.82;101527.47;5045902;28;19917;-78
2021/01/19 12:49:40;;;;;;;;;;;;;;;4.52;59.54;101522.97;5016423;28;20330;-78
2021/01/19 12:52:25;;;;;;;;;;;;;;;4.51;58.97;101521.38;5043725;28;19917;-78
2021/01/19 12:55:10;;;;;;;;;;;;;;;4.49;59.20;101512.72;5017273;28;19913;-78
2021/01/19 12:57:55;;;;;;;;;;;;;;;4.65;59.47;101510.97;5026306;28;19913;-80
2021/01/19 13:00:39;;;;;;;;;;;;;;;4.87;58.60;101525.19;5026144;28;19921;-78
2021/01/19 13:03:23;;;;;;;;;;;;;;;4.14;60.58;101506.97;5025017;28;19912;-79
2021/01/19 13:06:08;;;;;;;;;;;;;;;4.81;59.12;101510.06;5029922;28;19913;-79
2021/01/19 13:08:53;;;;;;;;;;;;;;;6.79;52.81;101509.81;5019306;28;19913;-77
2021/01/19 13:11:39;;;;;;;;;;;;;;;6.54;52.81;101500.88;5046039;28;19920;-78
2021/01/19 13:14:24;;;;;;;;;;;;;;;6.00;54.79;101507.50;5016399;28;19916;-79
2021/01/19 13:17:08;;;;;;;;;;;;;;;6.76;53.23;101504.94;5018907;28;19913;-79
2021/01/19 13:19:52;;;;;;;;;;;;;;;7.85;49.38;101494.44;5030073;28;19913;-80
2021/01/19 13:22:37;;;;;;;;;;;;;;;6.30;53.89;101501.38;5029453;28;19913;-79
2021/01/19 13:25:22;;;;;;;;;;;;;;;6.30;54.25;101493.28;5045215;28;19913;-80
2021/01/19 13:28:06;;;;;;;;;;;;;;;6.13;54.54;101494.59;5019008;28;19913;-78
2021/01/19 13:30:50;;;;;;;;;;;;;;;5.32;57.42;101488.84;5028976;28;19913;-79
2021/01/19 13:33:35;;;;;;;;;;;;;;;5.54;56.68;101484.91;5019729;28;19925;-78
2021/01/19 13:36:19;;;;;;;;;;;;;;;4.97;58.72;101492.94;5015846;28;20375;-80
2021/01/19 13:39:04;;;;;;;;;;;;;;;5.99;56.19;101491.59;5040657;28;19912;-81
2021/01/19 13:41:55;;;;;;;;;;;;;;;6.38;54.54;101487.34;5036594;28;19916;-78
2021/01/19 13:44:40;;;;;;;;;;;;;;;5.83;55.72;101485.31;5018765;28;19913;-79
2021/01/19 13:47:24;;;;;;;;;;;;;;;5.32;57.49;101484.25;5044690;28;20368;-82
2021/01/19 13:50:09;;;;;;;;;;;;;;;5.07;58.01;101484.09;5014335;28;19913;-79
2021/01/19 13:52:54;;;;;;;;;;;;;;;4.50;60.06;101476.66;5021323;28;19917;-79
2021/01/19 13:55:39;;;;;;;;;;;;;;;4.02;62.64;101469.44;5035392;28;19913;-78
2021/01/19 13:58:23;;;;;;;;;;;;;;;3.97;62.12;101472.06;5016209;28;19917;-78
2021/01/19 14:01:08;;;;;;;;;;;;;;;3.81;63.56;101478.34;5026207;28;19913;-79
2021/01/19 14:03:53;;;;;;;;;;;;;;;3.48;64.04;101475.78;5039136;28;19913;-80
2021/01/19 14:06:38;;;;;;;;;;;;;;;3.44;64.86;101483.56;5035237;28;20359;-79
2021/01/19 14:09:23;;;;;;;;;;;;;;;3.44;64.57;101484.38;5075834;22;19924;-82
2021/01/19 14:12:08;;;;;;;;;;;;;;;3.76;63.56;101486.34;5074777;28;19916;-82
2021/01/19 14:14:53;;;;;;;;;;;;;;;3.53;64.35;101487.44;5072443;28;19912;-84
2021/01/19 14:17:38;;;;;;;;;;;;;;;3.22;65.73;101486.22;5064632;28;19912;-83
2021/01/19 14:20:23;;;;;;;;;;;;;;;3.34;65.24;101492.31;5079509;28;19916;-84
2021/01/19 14:23:07;;;;;;;;;;;;;;;3.32;65.65;101497.09;5085043;28;19913;-85
2021/01/19 14:25:52;;;;;;;;;;;;;;;3.25;65.86;101492.97;5073415;28;19912;-83
2021/01/19 14:28:36;;;;;;;;;;;;;;;3.14;66.15;101483.94;5090331;28;19912;-84